Time;durP1;ratioP1;P1;durP2;ratioP2;P2;SDS_P1;SDS_P2;PMS_P1;PMS_P2;Temp;Humidity;BMP_temperature;BMP_pressure;BME280_temperature;BME280_humidity;BME280_pressure;Samples;Min_cycle;Max_cycle;Signal;HPM_P1;HPM_P2
2022/09/08 00:01:08;;;;;;;;;;;26.40;99.90;;;;;;5034496;28;19974;-71
2022/09/08 00:03:36;;;;;;;16.58;4.00;;;26.40;99.90;;;;;;5032164;28;19928;-72
2022/09/08 00:06:07;;;;;;;17.00;4.30;;;26.40;99.90;;;;;;5033506;28;20563;-71
2022/09/08 00:08:34;;;;;;;14.52;3.67;;;26.50;99.90;;;;;;5033609;28;20155;-72
2022/09/08 00:11:01;;;;;;;;;;;26.50;99.90;;;;;;5032423;28;20251;-71
2022/09/08 00:13:31;;;;;;;16.48;3.75;;;26.50;99.90;;;;;;5033707;28;19967;-72
2022/09/08 00:15:58;;;;;;;12.43;3.65;;;26.40;99.90;;;;;;5031951;28;20030;-71
2022/09/08 00:18:24;;;;;;;12.48;3.83;;;26.40;99.90;;;;;;5033577;28;20030;-71
2022/09/08 00:20:50;;;;;;;15.73;3.50;;;26.30;99.90;;;;;;5032901;28;20462;-71
2022/09/08 00:23:17;;;;;;;14.65;4.30;;;26.30;99.90;;;;;;5033552;28;20037;-71
2022/09/08 00:25:43;;;;;;;13.95;4.07;;;26.30;99.90;;;;;;5033482;28;20462;-71
2022/09/08 00:28:09;;;;;;;14.38;4.05;;;26.40;99.90;;;;;;5033421;28;20026;-70
2022/09/08 00:30:35;;;;;;;12.68;4.30;;;26.40;99.90;;;;;;5032710;28;20048;-72
2022/09/08 00:33:02;;;;;;;22.27;3.97;;;26.40;99.90;;;;;;5033427;28;20026;-72
2022/09/08 00:35:28;;;;;;;16.17;4.35;;;26.30;99.90;;;;;;5032994;28;20029;-72
2022/09/08 00:37:54;;;;;;;16.63;4.03;;;26.20;99.90;;;;;;5032830;28;20026;-71
2022/09/08 00:40:23;;;;;;;15.90;4.38;;;26.20;99.90;;;;;;5033088;28;20045;-71
2022/09/08 00:43:04;;;;;;;15.07;3.65;;;26.20;99.90;;;;;;5033204;28;20060;-71
2022/09/08 00:45:47;;;;;;;11.57;4.07;;;26.20;99.90;;;;;;5033058;28;20040;-69
2022/09/08 00:48:17;;;;;;;12.57;4.10;;;26.20;99.90;;;;;;5033138;28;20022;-72
2022/09/08 00:50:46;;;;;;;12.57;4.15;;;26.20;99.90;;;;;;5032701;28;20022;-69
2022/09/08 00:53:16;;;;;;;14.30;3.97;;;26.20;99.90;;;;;;5032594;28;20033;-70
2022/09/08 00:55:43;;;;;;;15.40;3.40;;;26.30;99.90;;;;;;5032824;28;20165;-70
2022/09/08 00:58:10;;;;;;;19.20;4.07;;;26.40;99.90;;;;;;5032354;28;20477;-70
2022/09/08 01:00:38;;;;;;;12.23;3.50;;;26.40;99.90;;;;;;5032423;28;20036;-71
2022/09/08 01:03:10;;;;;;;16.02;4.10;;;26.40;99.90;;;;;;5032075;28;20025;-70
2022/09/08 01:05:48;;;;;;;10.70;3.70;;;26.30;99.90;;;;;;5032610;28;20048;-70
2022/09/08 01:14:16;;;;;;;15.43;4.28;;;26.40;99.90;;;;;;5032691;28;20092;-70
2022/09/08 01:16:46;;;;;;;15.48;3.85;;;26.40;99.90;;;;;;5032181;28;20112;-70
2022/09/08 01:19:29;;;;;;;12.23;4.03;;;26.40;99.90;;;;;;5030633;28;20320;-70
2022/09/08 01:22:10;;;;;;;21.13;4.57;;;26.50;99.90;;;;;;5031933;28;20022;-70
2022/09/08 01:25:14;;;;;;;16.25;4.13;;;26.50;99.90;;;;;;5032238;28;20043;-71
2022/09/08 01:27:42;;;;;;;14.30;4.00;;;26.50;99.90;;;;;;5032288;28;20026;-70
2022/09/08 01:30:10;;;;;;;15.77;4.40;;;26.50;99.90;;;;;;5031621;28;20063;-71
2022/09/08 01:32:40;;;;;;;18.02;4.47;;;26.50;99.90;;;;;;5030729;28;20583;-70
2022/09/08 01:35:07;;;;;;;18.95;4.20;;;26.60;99.90;;;;;;5032040;28;20032;-71
2022/09/08 01:37:33;;;;;;;18.92;4.30;;;26.60;99.90;;;;;;5031911;28;20033;-70
2022/09/08 01:39:59;;;;;;;17.02;4.60;;;26.50;99.90;;;;;;5031728;28;20124;-72
2022/09/08 01:42:25;;;;;;;15.57;4.47;;;26.40;99.90;;;;;;5031567;28;20096;-71
2022/09/08 01:44:51;;;;;;;21.38;4.65;;;26.40;99.90;;;;;;5031644;28;20583;-70
2022/09/08 01:47:17;;;;;;;14.68;4.15;;;26.50;99.90;;;;;;5031899;28;20043;-70
2022/09/08 01:49:43;;;;;;;13.18;4.40;;;26.50;99.90;;;;;;5031506;28;20454;-70
2022/09/08 01:52:09;;;;;;;19.17;4.80;;;26.50;99.90;;;;;;5030001;28;20022;-70
2022/09/08 01:54:35;;;;;;;18.00;4.68;;;26.50;99.90;;;;;;5031620;28;20373;-70
2022/09/08 01:57:02;;;;;;;12.55;4.50;;;26.60;99.90;;;;;;5031588;28;20026;-70
2022/09/08 01:59:28;;;;;;;13.10;4.03;;;26.60;99.90;;;;;;5031474;28;20120;-70
2022/09/08 02:01:54;;;;;;;;;;;26.60;99.90;;;;;;5031893;28;20342;-70
2022/09/08 02:04:20;;;;;;;;;;;26.60;99.90;;;;;;5031668;28;19905;-70
2022/09/08 02:06:46;;;;;;;18.17;5.28;;;26.50;99.90;;;;;;5031198;28;20340;-70
2022/09/08 02:09:12;;;;;;;17.38;4.35;;;26.50;99.90;;;;;;5031267;28;20489;-70
2022/09/08 02:11:39;;;;;;;18.92;4.97;;;26.50;99.90;;;;;;5030973;28;20021;-71
2022/09/08 02:14:05;;;;;;;15.70;5.00;;;26.50;99.90;;;;;;5031031;28;20123;-71
2022/09/08 02:16:31;;;;;;;16.60;4.95;;;26.50;99.90;;;;;;5031113;28;20101;-70
2022/09/08 02:18:57;;;;;;;17.52;5.05;;;26.40;99.90;;;;;;5031232;28;20029;-70
2022/09/08 02:21:24;;;;;;;19.42;5.55;;;26.30;99.90;;;;;;5030782;28;20045;-70
2022/09/08 02:23:51;;;;;;;15.32;5.50;;;26.30;99.90;;;;;;5030898;28;20051;-71
2022/09/08 02:26:28;;;;;;;18.23;5.45;;;26.20;99.90;;;;;;5030951;28;20031;-70
2022/09/08 02:28:55;;;;;;;19.13;5.50;;;26.20;99.90;;;;;;5030654;28;20045;-71
2022/09/08 02:31:23;;;;;;;19.73;5.30;;;26.10;99.90;;;;;;5030730;28;20041;-70
2022/09/08 02:33:50;;;;;;;18.10;5.20;;;26.20;99.90;;;;;;5030502;28;20029;-71
2022/09/08 02:36:16;;;;;;;17.30;5.20;;;26.10;99.90;;;;;;5030266;28;20469;-71
2022/09/08 02:38:47;;;;;;;17.95;5.45;;;26.20;99.90;;;;;;5028657;28;20042;-70
2022/09/08 02:41:13;;;;;;;17.35;5.15;;;26.20;99.90;;;;;;5030644;28;20028;-70
2022/09/08 02:43:39;;;;;;;14.77;5.25;;;26.20;99.90;;;;;;5035245;28;20033;-71
2022/09/08 02:46:07;;;;;;;26.08;5.53;;;26.20;99.90;;;;;;5037100;28;20022;-71
2022/09/08 02:48:34;;;;;;;16.75;5.25;;;26.20;99.90;;;;;;5036226;28;20442;-70
2022/09/08 02:51:02;;;;;;;17.23;4.88;;;26.20;99.90;;;;;;5036536;28;20167;-71
2022/09/08 02:53:29;;;;;;;20.75;5.55;;;26.20;99.90;;;;;;5036284;28;20420;-71
2022/09/08 02:55:57;;;;;;;18.50;4.78;;;26.10;99.90;;;;;;5037595;28;20108;-70
2022/09/08 02:58:24;;;;;;;14.07;5.28;;;26.10;99.90;;;;;;5037826;28;20108;-71
2022/09/08 03:00:50;;;;;;;15.48;4.53;;;26.20;99.90;;;;;;5037830;28;20025;-71
2022/09/08 03:03:17;;;;;;;15.52;4.60;;;26.20;99.90;;;;;;5037637;28;20026;-70
2022/09/08 03:05:43;;;;;;;;;;;26.20;99.90;;;;;;5038048;28;20033;-71
2022/09/08 03:08:09;;;;;;;;;;;26.20;99.90;;;;;;5037732;28;20317;-70
2022/09/08 03:10:36;;;;;;;21.02;5.38;;;26.30;99.90;;;;;;5037667;28;19908;-70
2022/09/08 03:13:02;;;;;;;16.33;5.05;;;26.30;99.90;;;;;;5037537;28;20112;-70
2022/09/08 03:15:29;;;;;;;;;;;26.20;99.90;;;;;;5038211;28;20105;-71
2022/09/08 03:17:55;;;;;;;24.13;5.40;;;26.20;99.90;;;;;;5035790;28;19905;-70
2022/09/08 03:20:22;;;;;;;16.17;4.68;;;26.20;99.90;;;;;;5037411;28;20096;-70
2022/09/08 03:22:49;;;;;;;11.63;4.43;;;26.20;99.90;;;;;;5036584;28;20017;-70
2022/09/08 03:25:17;;;;;;;25.00;5.85;;;26.20;99.90;;;;;;5037753;28;20029;-70
2022/09/08 03:27:43;;;;;;;14.73;5.22;;;26.20;99.90;;;;;;5037682;28;20105;-70
2022/09/08 03:30:12;;;;;;;16.60;4.80;;;26.20;99.90;;;;;;5037399;28;20053;-70
2022/09/08 03:32:40;;;;;;;17.73;5.43;;;26.10;99.90;;;;;;5038066;28;20018;-71
2022/09/08 03:35:08;;;;;;;18.85;5.38;;;26.10;99.90;;;;;;5038090;28;20033;-71
2022/09/08 03:37:35;;;;;;;14.27;4.72;;;26.10;99.90;;;;;;5037610;28;20026;-70
2022/09/08 03:40:05;;;;;;;14.30;5.03;;;26.10;99.90;;;;;;5036048;28;20118;-70
2022/09/08 03:42:34;;;;;;;17.70;5.40;;;26.10;99.90;;;;;;5037806;28;20033;-71
2022/09/08 03:45:01;;;;;;;19.33;5.40;;;26.10;99.90;;;;;;5037425;28;20116;-71
2022/09/08 03:47:27;;;;;;;14.43;4.78;;;26.10;99.90;;;;;;5035912;28;20029;-71
2022/09/08 03:49:53;;;;;;;13.30;5.22;;;26.00;99.90;;;;;;5037374;28;20061;-71
2022/09/08 03:52:19;;;;;;;15.52;5.05;;;25.90;99.90;;;;;;5037330;28;20119;-70
2022/09/08 03:54:48;;;;;;;16.42;5.00;;;25.90;99.90;;;;;;5033176;28;20457;-70
2022/09/08 03:57:16;;;;;;;19.17;5.30;;;26.00;99.90;;;;;;5033947;28;20077;-70
2022/09/08 03:59:43;;;;;;;12.93;5.10;;;26.00;99.90;;;;;;5034178;28;20037;-71
2022/09/08 04:02:10;;;;;;;13.75;5.03;;;25.90;99.90;;;;;;5034506;28;20029;-70
2022/09/08 04:04:37;;;;;;;14.95;4.60;;;26.00;99.90;;;;;;5033904;28;20064;-71
2022/09/08 04:07:04;;;;;;;19.42;5.38;;;26.00;99.90;;;;;;5033725;28;20030;-71
2022/09/08 04:09:29;;;;;;;;;;;26.00;99.90;;;;;;5034495;28;20154;-70
2022/09/08 04:11:55;;;;;;;;;;;26.00;99.90;;;;;;5034225;28;20006;-72
2022/09/08 04:14:21;;;;;;;14.60;5.40;;;26.00;99.90;;;;;;5033763;28;19948;-70
2022/09/08 04:16:47;;;;;;;10.73;4.93;;;26.00;99.90;;;;;;5034796;28;20021;-70
2022/09/08 04:19:14;;;;;;;21.33;5.75;;;25.90;99.90;;;;;;5034810;28;20026;-71
2022/09/08 04:21:40;;;;;;;19.88;5.50;;;25.90;99.90;;;;;;5034787;28;20030;-70
2022/09/08 04:24:06;;;;;;;17.23;5.53;;;25.90;99.90;;;;;;5034644;28;20052;-71
2022/09/08 04:26:32;;;;;;;15.07;5.50;;;25.90;99.90;;;;;;5033332;28;20065;-70
2022/09/08 04:28:59;;;;;;;16.25;5.35;;;25.80;99.90;;;;;;5034448;28;20053;-71
2022/09/08 04:31:25;;;;;;;16.65;5.38;;;25.70;99.90;;;;;;5033162;28;20041;-70
2022/09/08 04:33:51;;;;;;;17.67;5.80;;;25.70;99.90;;;;;;5034874;28;20029;-70
2022/09/08 04:36:20;;;;;;;16.20;5.25;;;25.70;99.90;;;;;;5034438;28;20021;-71
2022/09/08 04:38:46;;;;;;;13.45;5.13;;;25.70;99.90;;;;;;5035465;28;20037;-71
2022/09/08 04:41:16;;;;;;;15.93;5.43;;;25.80;99.90;;;;;;5035502;28;20029;-70
2022/09/08 04:43:42;;;;;;;21.85;5.47;;;25.70;99.90;;;;;;5035352;28;20057;-70
2022/09/08 04:46:15;;;;;;;21.00;5.57;;;25.80;99.90;;;;;;5033357;28;20017;-70
2022/09/08 04:48:42;;;;;;;16.88;5.60;;;25.70;99.90;;;;;;5035042;28;20029;-70
2022/09/08 04:51:12;;;;;;;14.52;5.43;;;25.70;99.90;;;;;;5034889;28;20021;-71
2022/09/08 04:53:38;;;;;;;23.38;6.38;;;25.70;99.90;;;;;;5034545;28;20029;-71
2022/09/08 04:56:07;;;;;;;17.27;5.65;;;25.70;99.90;;;;;;5034643;28;20096;-70
2022/09/08 04:58:35;;;;;;;17.65;5.28;;;25.80;99.90;;;;;;5034513;28;20029;-71
2022/09/08 05:01:18;;;;;;;15.45;5.40;;;25.80;99.90;;;;;;5034719;28;20125;-70
2022/09/08 05:03:44;;;;;;;18.27;5.88;;;25.80;99.90;;;;;;5034861;28;20104;-71
2022/09/08 05:06:13;;;;;;;17.35;5.70;;;25.80;99.90;;;;;;5034265;28;20025;-70
2022/09/08 05:08:44;;;;;;;15.63;5.22;;;25.90;99.90;;;;;;5034326;28;20032;-71
2022/09/08 05:11:11;;;;;;;19.83;5.50;;;26.00;99.90;;;;;;5034827;28;20029;-71
2022/09/08 05:13:37;;;;;;;19.08;5.45;;;26.10;99.90;;;;;;5034036;28;20124;-70
2022/09/08 05:16:04;;;;;;;;;;;26.10;99.90;;;;;;5034117;28;20092;-70
2022/09/08 05:18:30;;;;;;;16.13;5.13;;;26.20;99.90;;;;;;5033617;28;20011;-71
2022/09/08 05:20:56;;;;;;;17.55;5.13;;;26.20;99.90;;;;;;5034135;28;20033;-71
2022/09/08 05:23:22;;;;;;;16.70;4.72;;;26.20;99.90;;;;;;5033865;28;20030;-71
2022/09/08 05:26:01;;;;;;;14.57;4.60;;;26.20;99.90;;;;;;5033287;28;20084;-71
2022/09/08 05:28:29;;;;;;;19.60;5.65;;;26.20;99.90;;;;;;5033817;28;20021;-70
2022/09/08 05:30:56;;;;;;;18.13;6.07;;;26.20;99.90;;;;;;5033049;28;20040;-71
2022/09/08 05:33:23;;;;;;;13.68;4.80;;;26.20;99.90;;;;;;5033128;28;20033;-71
2022/09/08 05:35:50;;;;;;;16.05;5.03;;;26.30;99.90;;;;;;5033093;28;20131;-70
2022/09/08 05:38:17;;;;;;;11.98;4.50;;;26.40;99.90;;;;;;5031593;28;20083;-70
2022/09/08 05:40:43;;;;;;;13.75;5.07;;;26.50;99.90;;;;;;5033001;28;20021;-70
2022/09/08 05:43:09;;;;;;;16.65;5.00;;;26.50;99.90;;;;;;5033196;28;20029;-71
2022/09/08 05:45:36;;;;;;;20.20;4.65;;;26.60;99.90;;;;;;5032800;28;20026;-70
2022/09/08 05:48:03;;;;;;;15.48;4.93;;;26.70;99.90;;;;;;5032786;28;20053;-70
2022/09/08 05:50:34;;;;;;;18.60;5.00;;;26.70;99.90;;;;;;5032481;28;20021;-70
2022/09/08 05:53:02;;;;;;;15.68;4.28;;;26.80;99.90;;;;;;5032732;28;20370;-70
2022/09/08 05:55:29;;;;;;;14.98;4.50;;;26.90;99.90;;;;;;5032886;28;20083;-70
2022/09/08 05:57:56;;;;;;;13.18;4.22;;;27.00;99.90;;;;;;5032229;28;20029;-70
2022/09/08 06:00:23;;;;;;;17.35;4.57;;;27.00;99.90;;;;;;5032414;28;20068;-70
2022/09/08 06:02:50;;;;;;;10.93;4.05;;;27.10;99.90;;;;;;5032442;28;20029;-71
2022/09/08 06:05:17;;;;;;;13.70;4.40;;;27.10;99.90;;;;;;5032331;28;20112;-70
2022/09/08 06:07:43;;;;;;;14.57;4.22;;;27.20;99.90;;;;;;5030825;28;20500;-70
2022/09/08 06:10:09;;;;;;;16.38;4.22;;;27.20;99.90;;;;;;5032165;28;20025;-71
2022/09/08 06:12:35;;;;;;;;;;;27.10;99.90;;;;;;5032454;28;20148;-71
2022/09/08 06:15:01;;;;;;;15.73;4.25;;;27.30;99.90;;;;;;5032387;28;19952;-70
2022/09/08 06:17:27;;;;;;;19.27;4.00;;;27.50;99.90;;;;;;5032166;28;20079;-70
2022/09/08 06:19:53;;;;;;;17.40;3.83;;;27.60;99.90;;;;;;5032392;28;20569;-70
2022/09/08 06:22:19;;;;;;;14.63;3.83;;;27.60;99.90;;;;;;5032881;28;20109;-71
2022/09/08 06:24:45;;;;;;;18.13;4.60;;;27.70;99.90;;;;;;5030941;28;20029;-71
2022/09/08 06:27:27;;;;;;;12.27;3.63;;;27.80;99.90;;;;;;5032391;28;20029;-70
2022/09/08 06:30:11;;;;;;;12.63;3.10;;;27.90;99.90;;;;;;5032460;28;20083;-70
2022/09/08 06:32:43;;;;;;;21.50;4.00;;;28.10;99.90;;;;;;5032299;28;20037;-70
2022/09/08 06:35:36;;;;;;;11.77;3.22;;;28.40;99.90;;;;;;5032781;28;20025;-71
2022/09/08 06:38:11;;;;;;;12.80;3.03;;;28.90;99.90;;;;;;5032577;28;20029;-70
2022/09/08 06:41:00;;;;;;;15.73;2.95;;;29.50;99.90;;;;;;5032637;28;20121;-71
2022/09/08 06:43:46;;;;;;;10.05;3.20;;;30.30;99.90;;;;;;5031241;28;20025;-71
2022/09/08 06:46:21;;;;;;;11.55;2.50;;;31.40;99.90;;;;;;5032172;28;20036;-72
2022/09/08 06:48:48;;;;;;;14.43;2.83;;;31.90;99.90;;;;;;5033212;28;20021;-72
2022/09/08 06:51:28;;;;;;;12.40;2.92;;;32.10;99.90;;;;;;5032461;28;20033;-72
2022/09/08 06:53:57;;;;;;;10.00;2.50;;;32.80;99.90;;;;;;5030775;28;20169;-72
2022/09/08 06:56:31;;;;;;;14.32;2.70;;;33.00;99.90;;;;;;5031197;28;20044;-72
2022/09/08 06:59:02;;;;;;;11.30;2.80;;;33.10;99.90;;;;;;5030978;28;20127;-72
2022/09/08 07:01:45;;;;;;;8.65;2.40;;;32.60;99.90;;;;;;5032912;28;20104;-72
2022/09/08 07:04:49;;;;;;;13.70;2.83;;;31.90;99.90;;;;;;5033330;28;20057;-72
2022/09/08 07:07:25;;;;;;;11.07;2.30;;;31.30;99.90;;;;;;5010613;28;20103;-72
2022/09/08 07:09:51;;;;;;;13.40;2.38;;;30.80;99.90;;;;;;5029217;28;20069;-72
2022/09/08 07:12:45;;;;;;;7.47;2.33;;;30.50;99.90;;;;;;5032167;28;20052;-72
2022/09/08 07:15:42;;;;;;;9.95;2.35;;;30.30;99.90;;;;;;5032735;28;20101;-71
2022/09/08 07:18:20;;;;;;;8.55;2.60;;;30.50;99.90;;;;;;5032062;28;20394;-71
2022/09/08 07:20:46;;;;;;;9.48;2.60;;;31.10;99.90;;;;;;5032363;28;20033;-72
2022/09/08 07:23:15;;;;;;;;;;;31.10;99.90;;;;;;5032873;28;20021;-70
2022/09/08 07:26:05;;;;;;;11.73;2.70;;;31.10;99.90;;;;;;5032019;28;20277;-71
2022/09/08 07:29:03;;;;;;;8.88;2.28;;;30.60;99.90;;;;;;5031829;28;20116;-71
2022/09/08 07:31:29;;;;;;;8.10;2.63;;;30.50;99.90;;;;;;5035715;28;20041;-71
2022/09/08 07:34:06;;;;;;;7.70;2.30;;;30.10;99.90;;;;;;5034343;28;20121;-70
2022/09/08 07:36:54;;;;;;;11.05;2.58;;;30.00;99.90;;;;;;5036141;28;20024;-71
2022/09/08 07:39:33;;;;;;;12.98;3.38;;;29.90;99.90;;;;;;5035575;28;20466;-71
2022/09/08 07:42:02;;;;;;;10.52;2.90;;;29.80;99.90;;;;;;5034234;28;20025;-71
2022/09/08 07:44:28;;;;;;;8.98;2.40;;;29.70;99.90;;;;;;5035472;28;20434;-72
2022/09/08 07:46:59;;;;;;;6.43;2.60;;;29.70;99.90;;;;;;5035394;28;20026;-70
2022/09/08 07:49:49;;;;;;;11.57;2.65;;;29.80;99.90;;;;;;5035243;28;20026;-71
2022/09/08 07:52:37;;;;;;;11.30;2.97;;;29.60;99.90;;;;;;5031000;28;20442;-71
2022/09/08 07:55:37;;;;;;;10.75;2.83;;;29.60;99.90;;;;;;5035230;28;20109;-71
2022/09/08 07:58:37;;;;;;;11.35;2.72;;;29.70;99.90;;;;;;5034847;28;20029;-71
2022/09/08 08:01:27;;;;;;;7.30;2.58;;;30.00;99.90;;;;;;5012923;28;20053;-71
2022/09/08 08:04:16;;;;;;;10.45;2.67;;;30.40;99.90;;;;;;5013192;28;20052;-71
2022/09/08 08:06:49;;;;;;;10.10;2.45;;;30.50;99.90;;;;;;5013213;28;20049;-71
2022/09/08 08:09:45;;;;;;;8.15;2.05;;;30.70;99.90;;;;;;5012772;28;20365;-71
2022/09/08 08:12:53;;;;;;;10.32;2.35;;;30.80;99.90;;;;;;5013101;28;20038;-71
2022/09/08 08:15:23;;;;;;;8.88;2.47;;;31.00;99.90;;;;;;4999548;28;20075;-71
2022/09/08 08:18:14;;;;;;;9.40;2.65;;;31.00;99.90;;;;;;5013473;28;20121;-71
2022/09/08 08:20:47;;;;;;;7.80;2.00;;;31.10;99.90;;;;;;5013437;28;20042;-71
2022/09/08 08:23:40;;;;;;;12.18;2.97;;;31.50;99.90;;;;;;5013249;28;20022;-72
2022/09/08 08:26:12;;;;;;;8.85;2.58;;;31.60;99.90;;;;;;5006906;28;20425;-71
2022/09/08 08:28:43;;;;;;;12.23;2.95;;;31.70;99.90;;;;;;4996989;28;20037;-71
2022/09/08 08:31:40;;;;;;;11.82;3.10;;;32.00;99.90;;;;;;5012524;28;20052;-71
2022/09/08 08:34:13;;;;;;;9.45;2.55;;;32.00;99.90;;;;;;5013118;28;20066;-71
2022/09/08 08:36:45;;;;;;;6.60;2.25;;;32.10;99.90;;;;;;5017564;28;20033;-71
2022/09/08 08:39:23;;;;;;;10.40;2.20;;;32.10;99.90;;;;;;5034650;28;20035;-71
2022/09/08 08:42:29;;;;;;;11.75;2.53;;;32.10;99.90;;;;;;5034614;28;20051;-71
2022/09/08 08:45:16;;;;;;;14.38;2.78;;;32.30;99.90;;;;;;5034620;28;20079;-71
2022/09/08 08:48:03;;;;;;;10.93;2.47;;;32.60;99.90;;;;;;5032920;28;20033;-71
2022/09/08 08:51:17;;;;;;;10.52;2.35;;;32.50;99.90;;;;;;5034187;28;20083;-71
2022/09/08 08:54:00;;;;;;;10.68;2.08;;;32.30;99.90;;;;;;5014891;28;20076;-71
2022/09/08 08:56:44;;;;;;;8.45;2.22;;;32.10;99.90;;;;;;5032282;28;20398;-71
2022/09/08 08:59:49;;;;;;;14.13;2.75;;;32.40;99.90;;;;;;5032711;28;20029;-71
2022/09/08 09:02:33;;;;;;;11.18;2.33;;;32.70;99.90;;;;;;5030502;28;20041;-72
2022/09/08 09:05:24;;;;;;;11.40;2.33;;;33.00;99.90;;;;;;5034096;28;20377;-71
2022/09/08 09:08:17;;;;;;;12.57;2.10;;;32.80;99.90;;;;;;5034044;28;20026;-71
2022/09/08 09:11:00;;;;;;;9.73;1.90;;;32.40;99.90;;;;;;5033902;28;20056;-72
2022/09/08 09:13:36;;;;;;;7.80;2.10;;;32.40;99.90;;;;;;5034331;28;20033;-71
2022/09/08 09:16:36;;;;;;;7.72;2.10;;;32.40;99.90;;;;;;5034054;28;20516;-71
2022/09/08 09:19:29;;;;;;;8.73;2.20;;;32.30;99.90;;;;;;5032081;28;20034;-70
2022/09/08 09:22:14;;;;;;;10.30;1.80;;;32.60;99.90;;;;;;5033594;28;20453;-69
2022/09/08 09:24:51;;;;;;;7.95;1.80;;;32.70;99.90;;;;;;5033400;28;20026;-70
2022/09/08 09:27:40;;;;;;;8.93;2.08;;;32.90;99.90;;;;;;5033892;28;20438;-71
2022/09/08 09:30:47;;;;;;;9.88;2.15;;;33.00;99.90;;;;;;5033502;28;20112;-72
2022/09/08 09:33:44;;;;;;;10.85;2.10;;;33.00;99.90;;;;;;5033813;28;20066;-71
2022/09/08 09:36:55;;;;;;;8.18;1.88;;;32.70;99.90;;;;;;5034262;28;20068;-73
2022/09/08 09:39:49;;;;;;;6.40;1.75;;;32.10;99.90;;;;;;5011125;28;20038;-74
2022/09/08 09:42:45;;;;;;;8.40;2.78;;;32.10;99.90;;;;;;5012001;28;20078;-74
2022/09/08 09:45:28;;;;;;;9.27;2.22;;;32.40;99.90;;;;;;5011258;28;20034;-71
2022/09/08 09:48:32;;;;;;;11.18;2.70;;;32.30;99.90;;;;;;4994960;28;20025;-71
2022/09/08 09:51:42;;;;;;;6.77;2.00;;;32.50;99.90;;;;;;5011982;28;20110;-72
2022/09/08 09:54:30;;;;;;;10.75;2.25;;;32.50;99.90;;;;;;4978647;28;20277;-72
2022/09/08 09:57:29;;;;;;;13.18;2.47;;;32.40;99.90;;;;;;5011936;28;20104;-71
2022/09/08 10:00:24;;;;;;;9.85;2.30;;;32.30;99.90;;;;;;5011465;28;20034;-71
2022/09/08 10:03:08;;;;;;;8.38;2.28;;;32.30;99.90;;;;;;5008804;28;20157;-72
2022/09/08 10:05:55;;;;;;;5.90;2.15;;;31.90;99.90;;;;;;5011641;28;20538;-72
2022/09/08 10:08:45;;;;;;;13.70;2.72;;;32.10;99.90;;;;;;5011473;28;20058;-72
2022/09/08 10:11:45;;;;;;;8.18;2.20;;;32.30;99.90;;;;;;5033243;28;20512;-71
2022/09/08 10:17:54;;;;;;;6.53;2.10;;;32.30;99.90;;;;;;5032981;28;20041;-71
2022/09/08 10:20:33;;;;;;;8.23;1.90;;;32.30;99.90;;;;;;5033296;28;20463;-71
2022/09/08 10:23:36;;;;;;;7.60;2.20;;;32.30;99.90;;;;;;5033500;28;20029;-72
2022/09/08 10:26:20;;;;;;;10.73;2.60;;;32.30;99.90;;;;;;5033076;28;20025;-71
2022/09/08 10:29:11;;;;;;;9.30;2.67;;;32.40;99.90;;;;;;5033383;28;20025;-71
2022/09/08 10:31:56;;;;;;;7.35;2.30;;;32.40;99.90;;;;;;5033387;28;20124;-71
2022/09/08 10:35:00;;;;;;;8.30;2.30;;;32.60;99.90;;;;;;5033138;28;20025;-72
2022/09/08 10:37:44;;;;;;;11.52;2.45;;;32.60;99.90;;;;;;5032664;28;20271;-71
2022/09/08 10:40:43;;;;;;;12.85;2.35;;;32.50;99.90;;;;;;5030828;28;20045;-70
2022/09/08 10:43:33;;;;;;;6.30;2.15;;;32.50;99.90;;;;;;5032328;28;20060;-71
2022/09/08 10:46:30;;;;;;;8.00;2.42;;;32.60;99.90;;;;;;5032347;28;20112;-70
2022/09/08 10:49:32;;;;;;;9.63;2.20;;;32.80;99.90;;;;;;5032212;28;20021;-70
2022/09/08 10:52:19;;;;;;;8.85;2.13;;;32.90;99.90;;;;;;5029510;28;20022;-70
2022/09/08 10:55:14;;;;;;;8.07;2.20;;;32.90;99.90;;;;;;5031367;28;20040;-70
2022/09/08 10:57:48;;;;;;;8.18;2.35;;;32.70;99.90;;;;;;5031567;28;20556;-71
2022/09/08 11:00:19;;;;;;;6.57;2.63;;;32.60;99.90;;;;;;5032434;28;20354;-70
2022/09/08 11:03:14;;;;;;;7.20;2.35;;;32.70;99.90;;;;;;5031902;28;20049;-71
2022/09/08 11:05:42;;;;;;;12.23;1.95;;;32.90;99.90;;;;;;5036022;28;20378;-70
2022/09/08 11:08:39;;;;;;;9.07;2.55;;;32.70;99.90;;;;;;5035853;28;20032;-70
2022/09/08 11:11:30;;;;;;;5.40;2.05;;;32.70;99.90;;;;;;5035714;28;20030;-71
2022/09/08 11:14:39;;;;;;;12.40;2.55;;;32.60;99.90;;;;;;5036075;28;20068;-70
2022/09/08 11:17:11;;;;;;;8.55;1.98;;;32.60;99.90;;;;;;4995206;28;20029;-70
2022/09/08 11:19:48;;;;;;;6.22;1.98;;;32.90;99.90;;;;;;5036123;28;20454;-70
2022/09/08 11:22:36;;;;;;;10.85;1.90;;;33.00;99.90;;;;;;5036157;28;20026;-70
2022/09/08 11:25:12;;;;;;;6.95;2.13;;;32.90;99.90;;;;;;5036536;28;20029;-70
2022/09/08 11:28:15;;;;;;;10.90;2.22;;;33.00;99.90;;;;;;5035669;28;20492;-70
2022/09/08 11:31:11;;;;;;;7.65;2.00;;;33.00;99.90;;;;;;5035791;28;20057;-70
2022/09/08 11:34:20;;;;;;;8.77;2.30;;;32.90;99.90;;;;;;5036549;28;20083;-71
2022/09/08 11:37:08;;;;;;;11.30;2.00;;;33.00;99.90;;;;;;5036180;28;20052;-70
2022/09/08 11:39:58;;;;;;;7.32;2.10;;;33.10;99.90;;;;;;5035367;28;20037;-70
2022/09/08 11:42:49;;;;;;;9.48;1.90;;;33.20;99.90;;;;;;5036036;28;20022;-70
2022/09/08 11:45:43;;;;;;;6.63;1.60;;;33.00;99.90;;;;;;5035942;28;20121;-70
2022/09/08 11:48:28;;;;;;;7.25;2.13;;;33.00;99.90;;;;;;5035986;28;20021;-70
2022/09/08 11:51:13;;;;;;;8.35;1.80;;;33.10;99.90;;;;;;5034128;28;20021;-70
2022/09/08 11:54:03;;;;;;;10.45;1.95;;;33.20;99.90;;;;;;5035566;28;20029;-70
2022/09/08 11:56:56;;;;;;;9.32;1.77;;;33.20;99.90;;;;;;5035683;28;20044;-70
2022/09/08 12:00:05;;;;;;;7.18;1.95;;;33.20;99.90;;;;;;5035406;28;20061;-72
2022/09/08 12:02:49;;;;;;;8.93;1.52;;;33.20;99.90;;;;;;5035829;28;20029;-72
2022/09/08 12:05:57;;;;;;;8.10;1.88;;;33.30;99.90;;;;;;5034712;28;20025;-71
2022/09/08 12:09:08;;;;;;;7.85;1.73;;;33.20;99.90;;;;;;5016066;28;20049;-71
2022/09/08 12:11:58;;;;;;;9.60;2.05;;;32.90;99.90;;;;;;5033393;28;20085;-71
2022/09/08 12:14:48;;;;;;;9.45;1.63;;;33.00;99.90;;;;;;5035438;28;20036;-72
2022/09/08 12:17:30;;;;;;;12.60;1.90;;;33.20;99.90;;;;;;5034964;28;20440;-71
2022/09/08 12:20:06;;;;;;;5.85;1.60;;;33.10;99.90;;;;;;5035325;28;20064;-71
2022/09/08 12:22:59;;;;;;;8.05;1.50;;;33.30;99.90;;;;;;5035093;28;20052;-71
2022/09/08 12:25:44;;;;;;;6.70;1.63;;;33.10;99.90;;;;;;5033614;28;20045;-71
2022/09/08 12:28:19;;;;;;;11.75;1.80;;;33.10;99.90;;;;;;5035484;28;20029;-71
2022/09/08 12:31:06;;;;;;;5.60;1.63;;;32.90;99.90;;;;;;5034952;28;20486;-71
2022/09/08 12:34:08;;;;;;;8.38;1.70;;;33.00;99.90;;;;;;5035495;28;20034;-72
2022/09/08 12:36:40;;;;;;;7.72;1.90;;;32.80;99.90;;;;;;5035466;28;20407;-71
2022/09/08 12:39:27;;;;;;;6.45;1.52;;;32.80;99.90;;;;;;5034637;28;20109;-71
2022/09/08 12:42:08;;;;;;;9.00;1.60;;;32.70;99.90;;;;;;5033291;28;20029;-71
2022/09/08 12:44:55;;;;;;;6.60;1.63;;;32.60;99.90;;;;;;5034979;28;20036;-71
2022/09/08 12:47:39;;;;;;;12.20;1.70;;;32.70;99.90;;;;;;5033087;28;20034;-71
2022/09/08 12:50:14;;;;;;;7.72;2.30;;;32.90;99.90;;;;;;5034895;28;20026;-70
2022/09/08 12:53:24;;;;;;;4.47;1.60;;;33.00;99.90;;;;;;5034433;28;20384;-70
2022/09/08 12:56:03;;;;;;;6.03;1.50;;;33.00;99.90;;;;;;5033955;28;20485;-70
2022/09/08 12:58:50;;;;;;;5.93;1.85;;;32.80;99.90;;;;;;5033862;28;20037;-70
2022/09/08 13:01:30;;;;;;;5.35;1.70;;;32.80;99.90;;;;;;5033750;28;20029;-70
2022/09/08 13:03:59;;;;;;;7.18;2.17;;;32.80;99.90;;;;;;5033879;28;20064;-71
2022/09/08 13:06:44;;;;;;;11.25;2.05;;;32.80;99.90;;;;;;5032378;28;20064;-71
2022/09/08 13:09:24;;;;;;;5.97;1.70;;;33.00;99.90;;;;;;5034872;28;20405;-71
2022/09/08 13:12:11;;;;;;;9.82;1.75;;;33.20;99.90;;;;;;5033966;28;20029;-72
2022/09/08 13:14:45;;;;;;;6.80;1.77;;;33.30;99.90;;;;;;5033887;28;20055;-71
2022/09/08 13:17:20;;;;;;;8.03;1.80;;;33.50;99.90;;;;;;5034276;28;20053;-71
2022/09/08 13:20:05;;;;;;;6.88;1.88;;;33.50;99.90;;;;;;5034092;28;20429;-71
2022/09/08 13:22:56;;;;;;;4.97;1.58;;;33.60;99.90;;;;;;5034662;28;20021;-71
2022/09/08 13:25:38;;;;;;;6.22;1.70;;;33.70;99.90;;;;;;5032343;28;20034;-71
2022/09/08 13:28:25;;;;;;;8.25;1.85;;;33.80;99.90;;;;;;5034253;28;20017;-71
2022/09/08 13:31:13;;;;;;;11.23;2.00;;;33.90;99.90;;;;;;5033218;28;20050;-71
2022/09/08 13:33:46;;;;;;;5.68;1.60;;;33.60;99.90;;;;;;5033431;28;20033;-71
2022/09/08 13:36:31;;;;;;;9.07;2.05;;;33.50;99.90;;;;;;5033567;28;20592;-71
2022/09/08 13:39:23;;;;;;;8.32;2.05;;;33.30;99.90;;;;;;5033497;28;20030;-71
2022/09/08 13:42:25;;;;;;;6.55;1.75;;;33.50;99.90;;;;;;5031953;28;20119;-71
2022/09/08 13:45:02;;;;;;;11.32;1.95;;;33.60;99.90;;;;;;5033779;28;20057;-71